Aérodrome :







RETROUVEZ-NOUS SUR...

 
LOGIN :

S'inscrire | Disclaimer

   EN    FR    IT 

 









Légende :    VFR   VFR Marginal   IFR   IFR Intensif   IFR Très Intensif
Visi : 
Plafond : 
>= 8 km
>= 3000ft
5 à 8 km
1000 à 3000 ft
1500m à 5 km
500 à 1000 ft
800 à 1500m
200 à 500 ft
< 800m
< 200 ft
Symboles :   Orages  Brouillard  Fortes neiges  Fortes précipitations  Vent > 20 kt






- Altitude de l'aérodrome : 76 ft
- Code IATA : PWM


KPWM - Portland International Jetport

DERNIER METAR :
  • 202351Z 36006KT 10SM -RA OVC036 03/00 A2996 RMK AO2 SLP147 P0001 60002 T00330000 10039 20028 53013

METARs EXPIRÉS :
  • 202251Z 35005KT 10SM -RA OVC039 03/00 A2995 RMK AO2 RAB2158 SLP142 P0000 T00330000
  • 202151Z 35006KT 10SM FEW030 OVC037 03/01 A2993 RMK AO2 SLP136 P0001 T00280006

TAF KPWM
Valide du 21 à 00h jusqu'au 22 à 00h UTC


202320Z 2100/2124 35005KT P6SM -RA OVC040
FM210300 34008KT P6SM FEW030 OVC035
FM210600 33006KT P6SM SKC
FM211800 32006KT P6SM BKN250



MET'MAP, la Météo Aéronautique d'un coup d'oeil ! - Copyright ORBIFLY Décembre 2007 - Disclaimer

ORBIFLY MET'MAP TEAM :

Programmation & Développement : Alexandra Zaïnal
Conception & Développement : Baudouin d'Aumeries
Co-Programmation & Développement : Marc-Olivier Méhu
Soutien technique & logistique : Manuel Goepfert

Contact : metmap@orbifly.com




SOURCES & CREDITS :

   NOAA